sensor_id;sensor_type;location;lat;lon;timestamp;P1;durP1;ratioP1;P2;durP2;ratioP2
72286;SDS011;60221;45.696;16.076;2023-04-24T00:01:14;5.60;;;1.70;;
72286;SDS011;60221;45.696;16.076;2023-04-24T00:03:41;5.00;;;1.90;;
72286;SDS011;60221;45.696;16.076;2023-04-24T00:06:08;5.20;;;1.70;;
72286;SDS011;60221;45.696;16.076;2023-04-24T00:08:35;6.80;;;2.10;;
72286;SDS011;60221;45.696;16.076;2023-04-24T00:11:02;6.70;;;2.40;;
72286;SDS011;60221;45.696;16.076;2023-04-24T00:13:29;6.60;;;2.00;;
72286;SDS011;60221;45.696;16.076;2023-04-24T00:15:56;4.60;;;1.40;;
72286;SDS011;60221;45.696;16.076;2023-04-24T00:18:23;6.00;;;1.30;;
72286;SDS011;60221;45.696;16.076;2023-04-24T00:20:49;5.80;;;1.80;;
72286;SDS011;60221;45.696;16.076;2023-04-24T00:23:16;5.20;;;1.50;;
72286;SDS011;60221;45.696;16.076;2023-04-24T00:25:43;5.00;;;1.30;;
72286;SDS011;60221;45.696;16.076;2023-04-24T00:28:11;5.10;;;1.30;;
72286;SDS011;60221;45.696;16.076;2023-04-24T00:30:37;5.80;;;1.20;;
72286;SDS011;60221;45.696;16.076;2023-04-24T00:33:04;6.40;;;1.30;;
72286;SDS011;60221;45.696;16.076;2023-04-24T00:35:31;4.30;;;1.10;;
72286;SDS011;60221;45.696;16.076;2023-04-24T00:37:58;4.20;;;1.40;;
72286;SDS011;60221;45.696;16.076;2023-04-24T00:40:25;6.00;;;1.60;;
72286;SDS011;60221;45.696;16.076;2023-04-24T00:42:53;5.50;;;1.30;;
72286;SDS011;60221;45.696;16.076;2023-04-24T00:45:20;4.90;;;1.00;;
72286;SDS011;60221;45.696;16.076;2023-04-24T00:47:46;4.30;;;1.30;;
72286;SDS011;60221;45.696;16.076;2023-04-24T00:50:14;7.10;;;1.10;;
72286;SDS011;60221;45.696;16.076;2023-04-24T00:52:41;5.80;;;1.50;;
72286;SDS011;60221;45.696;16.076;2023-04-24T00:55:08;5.10;;;1.60;;
72286;SDS011;60221;45.696;16.076;2023-04-24T00:57:36;4.70;;;1.40;;
72286;SDS011;60221;45.696;16.076;2023-04-24T01:00:03;5.20;;;1.60;;
72286;SDS011;60221;45.696;16.076;2023-04-24T01:02:32;4.80;;;1.60;;
72286;SDS011;60221;45.696;16.076;2023-04-24T01:05:01;5.80;;;2.10;;
72286;SDS011;60221;45.696;16.076;2023-04-24T01:07:28;8.90;;;3.00;;
72286;SDS011;60221;45.696;16.076;2023-04-24T01:09:55;9.20;;;2.70;;
72286;SDS011;60221;45.696;16.076;2023-04-24T01:12:24;6.80;;;2.20;;
72286;SDS011;60221;45.696;16.076;2023-04-24T01:14:50;7.70;;;2.40;;
72286;SDS011;60221;45.696;16.076;2023-04-24T01:17:17;8.60;;;2.50;;
72286;SDS011;60221;45.696;16.076;2023-04-24T01:19:46;7.90;;;2.00;;
72286;SDS011;60221;45.696;16.076;2023-04-24T01:22:14;6.70;;;2.10;;
72286;SDS011;60221;45.696;16.076;2023-04-24T01:24:41;8.60;;;2.50;;
72286;SDS011;60221;45.696;16.076;2023-04-24T01:27:10;7.00;;;1.80;;
72286;SDS011;60221;45.696;16.076;2023-04-24T01:29:37;6.40;;;1.40;;
72286;SDS011;60221;45.696;16.076;2023-04-24T01:32:04;4.00;;;1.40;;
72286;SDS011;60221;45.696;16.076;2023-04-24T01:34:31;4.30;;;1.10;;
72286;SDS011;60221;45.696;16.076;2023-04-24T01:36:58;5.50;;;1.30;;
72286;SDS011;60221;45.696;16.076;2023-04-24T01:39:25;5.40;;;1.50;;
72286;SDS011;60221;45.696;16.076;2023-04-24T01:41:52;4.50;;;1.10;;
72286;SDS011;60221;45.696;16.076;2023-04-24T01:44:20;4.60;;;1.10;;
72286;SDS011;60221;45.696;16.076;2023-04-24T01:46:47;5.40;;;1.40;;
72286;SDS011;60221;45.696;16.076;2023-04-24T01:49:13;4.80;;;1.00;;
72286;SDS011;60221;45.696;16.076;2023-04-24T01:51:40;3.80;;;1.20;;
72286;SDS011;60221;45.696;16.076;2023-04-24T01:54:07;4.90;;;1.20;;
72286;SDS011;60221;45.696;16.076;2023-04-24T01:56:34;3.40;;;0.80;;
72286;SDS011;60221;45.696;16.076;2023-04-24T01:59:04;5.20;;;1.40;;
72286;SDS011;60221;45.696;16.076;2023-04-24T02:01:34;4.70;;;1.30;;
72286;SDS011;60221;45.696;16.076;2023-04-24T02:04:04;3.80;;;0.80;;
72286;SDS011;60221;45.696;16.076;2023-04-24T02:06:32;4.40;;;1.20;;
72286;SDS011;60221;45.696;16.076;2023-04-24T02:08:59;4.70;;;1.10;;
72286;SDS011;60221;45.696;16.076;2023-04-24T02:11:27;3.30;;;1.00;;
72286;SDS011;60221;45.696;16.076;2023-04-24T02:13:54;3.60;;;0.90;;
72286;SDS011;60221;45.696;16.076;2023-04-24T02:16:20;4.30;;;0.90;;
72286;SDS011;60221;45.696;16.076;2023-04-24T02:18:49;3.40;;;0.80;;
72286;SDS011;60221;45.696;16.076;2023-04-24T02:21:16;4.20;;;1.00;;
72286;SDS011;60221;45.696;16.076;2023-04-24T02:23:43;5.00;;;1.00;;
72286;SDS011;60221;45.696;16.076;2023-04-24T02:26:11;5.10;;;1.10;;
72286;SDS011;60221;45.696;16.076;2023-04-24T02:28:38;4.70;;;1.30;;
72286;SDS011;60221;45.696;16.076;2023-04-24T02:31:05;5.10;;;1.40;;
72286;SDS011;60221;45.696;16.076;2023-04-24T02:33:32;4.30;;;0.90;;
72286;SDS011;60221;45.696;16.076;2023-04-24T02:35:59;5.00;;;1.40;;
72286;SDS011;60221;45.696;16.076;2023-04-24T02:38:26;4.30;;;1.20;;
72286;SDS011;60221;45.696;16.076;2023-04-24T02:40:53;5.30;;;1.50;;
72286;SDS011;60221;45.696;16.076;2023-04-24T02:43:20;5.60;;;1.70;;
72286;SDS011;60221;45.696;16.076;2023-04-24T02:45:47;4.00;;;1.20;;
72286;SDS011;60221;45.696;16.076;2023-04-24T02:48:14;5.10;;;1.20;;
72286;SDS011;60221;45.696;16.076;2023-04-24T02:50:41;4.80;;;1.70;;
72286;SDS011;60221;45.696;16.076;2023-04-24T02:53:07;6.10;;;1.60;;
72286;SDS011;60221;45.696;16.076;2023-04-24T02:55:34;5.70;;;1.20;;
72286;SDS011;60221;45.696;16.076;2023-04-24T02:58:02;4.50;;;1.60;;
72286;SDS011;60221;45.696;16.076;2023-04-24T03:00:29;5.30;;;1.40;;
72286;SDS011;60221;45.696;16.076;2023-04-24T03:02:56;6.90;;;1.20;;
72286;SDS011;60221;45.696;16.076;2023-04-24T03:05:23;3.60;;;1.40;;
72286;SDS011;60221;45.696;16.076;2023-04-24T03:07:50;4.60;;;1.60;;
72286;SDS011;60221;45.696;16.076;2023-04-24T03:10:20;4.40;;;1.40;;
72286;SDS011;60221;45.696;16.076;2023-04-24T03:12:49;6.70;;;1.50;;
72286;SDS011;60221;45.696;16.076;2023-04-24T03:15:17;4.60;;;1.40;;
72286;SDS011;60221;45.696;16.076;2023-04-24T03:17:44;3.40;;;1.00;;
72286;SDS011;60221;45.696;16.076;2023-04-24T03:20:11;5.20;;;1.40;;
72286;SDS011;60221;45.696;16.076;2023-04-24T03:22:38;5.40;;;1.20;;
72286;SDS011;60221;45.696;16.076;2023-04-24T03:25:06;3.90;;;1.10;;
72286;SDS011;60221;45.696;16.076;2023-04-24T03:27:36;4.90;;;1.20;;
72286;SDS011;60221;45.696;16.076;2023-04-24T03:30:16;4.80;;;1.30;;
72286;SDS011;60221;45.696;16.076;2023-04-24T03:32:47;10.20;;;2.60;;
72286;SDS011;60221;45.696;16.076;2023-04-24T03:35:17;17.20;;;5.90;;
72286;SDS011;60221;45.696;16.076;2023-04-24T03:37:44;118.70;;;36.20;;
72286;SDS011;60221;45.696;16.076;2023-04-24T03:40:30;173.60;;;55.80;;
72286;SDS011;60221;45.696;16.076;2023-04-24T03:42:57;93.60;;;28.90;;
72286;SDS011;60221;45.696;16.076;2023-04-24T03:45:24;33.00;;;11.00;;
72286;SDS011;60221;45.696;16.076;2023-04-24T03:47:51;20.00;;;6.00;;
72286;SDS011;60221;45.696;16.076;2023-04-24T03:50:18;11.30;;;3.30;;
72286;SDS011;60221;45.696;16.076;2023-04-24T03:52:45;9.00;;;2.40;;
72286;SDS011;60221;45.696;16.076;2023-04-24T03:55:18;5.30;;;1.90;;
72286;SDS011;60221;45.696;16.076;2023-04-24T03:57:45;6.80;;;1.60;;
72286;SDS011;60221;45.696;16.076;2023-04-24T04:00:18;7.00;;;1.90;;
72286;SDS011;60221;45.696;16.076;2023-04-24T04:02:45;4.70;;;1.10;;
72286;SDS011;60221;45.696;16.076;2023-04-24T04:05:12;6.30;;;1.50;;
72286;SDS011;60221;45.696;16.076;2023-04-24T04:07:40;7.80;;;1.60;;
72286;SDS011;60221;45.696;16.076;2023-04-24T04:10:07;7.90;;;2.00;;
72286;SDS011;60221;45.696;16.076;2023-04-24T04:12:35;5.90;;;1.70;;
72286;SDS011;60221;45.696;16.076;2023-04-24T04:15:02;5.60;;;1.40;;
72286;SDS011;60221;45.696;16.076;2023-04-24T04:17:29;6.30;;;1.90;;
72286;SDS011;60221;45.696;16.076;2023-04-24T04:19:56;4.60;;;1.60;;
72286;SDS011;60221;45.696;16.076;2023-04-24T04:22:23;4.90;;;1.80;;
72286;SDS011;60221;45.696;16.076;2023-04-24T04:24:51;5.80;;;1.80;;
72286;SDS011;60221;45.696;16.076;2023-04-24T04:27:20;5.90;;;1.80;;
72286;SDS011;60221;45.696;16.076;2023-04-24T04:29:53;6.10;;;1.60;;
72286;SDS011;60221;45.696;16.076;2023-04-24T04:32:23;8.10;;;1.80;;
72286;SDS011;60221;45.696;16.076;2023-04-24T04:34:51;6.10;;;1.40;;
72286;SDS011;60221;45.696;16.076;2023-04-24T04:37:20;9.40;;;1.90;;
72286;SDS011;60221;45.696;16.076;2023-04-24T04:39:58;6.40;;;1.50;;
72286;SDS011;60221;45.696;16.076;2023-04-24T04:42:27;5.90;;;2.30;;
72286;SDS011;60221;45.696;16.076;2023-04-24T04:44:55;9.20;;;2.70;;
72286;SDS011;60221;45.696;16.076;2023-04-24T04:47:29;7.80;;;3.00;;
72286;SDS011;60221;45.696;16.076;2023-04-24T04:49:58;9.90;;;3.90;;
72286;SDS011;60221;45.696;16.076;2023-04-24T04:52:26;9.90;;;4.30;;
72286;SDS011;60221;45.696;16.076;2023-04-24T04:55:19;11.80;;;4.00;;
72286;SDS011;60221;45.696;16.076;2023-04-24T04:58:04;11.00;;;4.30;;
72286;SDS011;60221;45.696;16.076;2023-04-24T05:00:31;8.30;;;3.60;;
72286;SDS011;60221;45.696;16.076;2023-04-24T05:03:05;6.30;;;2.60;;
72286;SDS011;60221;45.696;16.076;2023-04-24T05:05:46;6.80;;;2.10;;
72286;SDS011;60221;45.696;16.076;2023-04-24T05:08:13;7.10;;;2.20;;
72286;SDS011;60221;45.696;16.076;2023-04-24T05:10:43;5.00;;;2.20;;
72286;SDS011;60221;45.696;16.076;2023-04-24T05:13:10;6.40;;;2.10;;
72286;SDS011;60221;45.696;16.076;2023-04-24T05:15:39;6.90;;;1.80;;
72286;SDS011;60221;45.696;16.076;2023-04-24T05:18:07;7.00;;;2.10;;
72286;SDS011;60221;45.696;16.076;2023-04-24T05:20:34;4.90;;;1.50;;
72286;SDS011;60221;45.696;16.076;2023-04-24T05:23:01;7.30;;;2.10;;
72286;SDS011;60221;45.696;16.076;2023-04-24T05:25:29;6.60;;;2.10;;
72286;SDS011;60221;45.696;16.076;2023-04-24T05:28:03;5.40;;;1.40;;
72286;SDS011;60221;45.696;16.076;2023-04-24T05:30:31;6.20;;;1.80;;
72286;SDS011;60221;45.696;16.076;2023-04-24T05:32:58;5.00;;;1.60;;
72286;SDS011;60221;45.696;16.076;2023-04-24T05:35:28;5.90;;;2.00;;
72286;SDS011;60221;45.696;16.076;2023-04-24T05:37:55;8.00;;;2.10;;
72286;SDS011;60221;45.696;16.076;2023-04-24T05:40:22;8.90;;;2.00;;
72286;SDS011;60221;45.696;16.076;2023-04-24T05:42:49;5.90;;;2.00;;
72286;SDS011;60221;45.696;16.076;2023-04-24T05:45:16;7.20;;;2.10;;
72286;SDS011;60221;45.696;16.076;2023-04-24T05:47:43;5.80;;;2.30;;
72286;SDS011;60221;45.696;16.076;2023-04-24T05:50:10;6.50;;;2.00;;
72286;SDS011;60221;45.696;16.076;2023-04-24T05:52:38;8.40;;;2.50;;
72286;SDS011;60221;45.696;16.076;2023-04-24T05:55:11;7.40;;;3.20;;
72286;SDS011;60221;45.696;16.076;2023-04-24T05:57:38;6.40;;;2.20;;
72286;SDS011;60221;45.696;16.076;2023-04-24T06:00:05;7.20;;;2.80;;
72286;SDS011;60221;45.696;16.076;2023-04-24T06:02:44;8.10;;;2.90;;
72286;SDS011;60221;45.696;16.076;2023-04-24T06:05:11;11.50;;;3.80;;
72286;SDS011;60221;45.696;16.076;2023-04-24T06:07:38;7.10;;;3.60;;
72286;SDS011;60221;45.696;16.076;2023-04-24T06:10:05;9.10;;;3.20;;
72286;SDS011;60221;45.696;16.076;2023-04-24T06:12:38;8.10;;;3.50;;
72286;SDS011;60221;45.696;16.076;2023-04-24T06:15:08;8.40;;;3.90;;
72286;SDS011;60221;45.696;16.076;2023-04-24T06:17:54;7.30;;;3.50;;
72286;SDS011;60221;45.696;16.076;2023-04-24T06:20:21;9.00;;;4.00;;
72286;SDS011;60221;45.696;16.076;2023-04-24T06:22:48;8.70;;;4.00;;
72286;SDS011;60221;45.696;16.076;2023-04-24T06:25:15;11.60;;;4.90;;
72286;SDS011;60221;45.696;16.076;2023-04-24T06:27:42;8.00;;;3.60;;
72286;SDS011;60221;45.696;16.076;2023-04-24T06:30:09;8.80;;;3.60;;
72286;SDS011;60221;45.696;16.076;2023-04-24T06:32:36;7.30;;;3.30;;
72286;SDS011;60221;45.696;16.076;2023-04-24T06:35:03;6.60;;;3.30;;
72286;SDS011;60221;45.696;16.076;2023-04-24T06:37:31;9.30;;;4.40;;
72286;SDS011;60221;45.696;16.076;2023-04-24T06:39:58;11.80;;;4.70;;
72286;SDS011;60221;45.696;16.076;2023-04-24T06:42:25;6.40;;;3.50;;
72286;SDS011;60221;45.696;16.076;2023-04-24T06:44:52;8.20;;;4.10;;
72286;SDS011;60221;45.696;16.076;2023-04-24T06:47:19;10.80;;;6.70;;
72286;SDS011;60221;45.696;16.076;2023-04-24T06:49:46;22.00;;;16.30;;
72286;SDS011;60221;45.696;16.076;2023-04-24T06:52:13;20.80;;;13.50;;
72286;SDS011;60221;45.696;16.076;2023-04-24T06:54:41;52.00;;;27.00;;
72286;SDS011;60221;45.696;16.076;2023-04-24T06:57:10;30.90;;;17.80;;
72286;SDS011;60221;45.696;16.076;2023-04-24T06:59:37;20.20;;;11.30;;
72286;SDS011;60221;45.696;16.076;2023-04-24T07:02:04;132.00;;;55.90;;
72286;SDS011;60221;45.696;16.076;2023-04-24T07:04:31;70.30;;;33.10;;
72286;SDS011;60221;45.696;16.076;2023-04-24T07:06:58;38.00;;;19.10;;
72286;SDS011;60221;45.696;16.076;2023-04-24T07:09:25;20.90;;;10.20;;
72286;SDS011;60221;45.696;16.076;2023-04-24T07:11:52;15.00;;;7.00;;
72286;SDS011;60221;45.696;16.076;2023-04-24T07:14:19;10.30;;;5.10;;
72286;SDS011;60221;45.696;16.076;2023-04-24T07:16:47;9.40;;;3.90;;
72286;SDS011;60221;45.696;16.076;2023-04-24T07:19:13;10.30;;;4.30;;
72286;SDS011;60221;45.696;16.076;2023-04-24T07:21:40;8.80;;;3.80;;
72286;SDS011;60221;45.696;16.076;2023-04-24T07:24:07;8.40;;;4.30;;
72286;SDS011;60221;45.696;16.076;2023-04-24T07:26:37;8.70;;;3.60;;
72286;SDS011;60221;45.696;16.076;2023-04-24T07:29:05;7.90;;;3.20;;
72286;SDS011;60221;45.696;16.076;2023-04-24T07:31:32;6.20;;;2.60;;
72286;SDS011;60221;45.696;16.076;2023-04-24T07:33:59;8.40;;;2.50;;
72286;SDS011;60221;45.696;16.076;2023-04-24T07:36:25;6.50;;;2.60;;
72286;SDS011;60221;45.696;16.076;2023-04-24T07:38:53;8.00;;;2.80;;
72286;SDS011;60221;45.696;16.076;2023-04-24T07:41:20;5.50;;;2.40;;
72286;SDS011;60221;45.696;16.076;2023-04-24T07:43:50;5.50;;;2.20;;
72286;SDS011;60221;45.696;16.076;2023-04-24T07:46:17;5.60;;;1.90;;
72286;SDS011;60221;45.696;16.076;2023-04-24T07:48:44;5.50;;;1.80;;
72286;SDS011;60221;45.696;16.076;2023-04-24T07:51:11;6.50;;;2.40;;
72286;SDS011;60221;45.696;16.076;2023-04-24T07:53:39;6.00;;;2.00;;
72286;SDS011;60221;45.696;16.076;2023-04-24T07:56:06;7.40;;;2.80;;
72286;SDS011;60221;45.696;16.076;2023-04-24T07:58:33;5.20;;;2.20;;
72286;SDS011;60221;45.696;16.076;2023-04-24T08:01:00;5.20;;;2.30;;
72286;SDS011;60221;45.696;16.076;2023-04-24T08:03:27;8.40;;;2.40;;
72286;SDS011;60221;45.696;16.076;2023-04-24T08:05:54;7.50;;;2.80;;
72286;SDS011;60221;45.696;16.076;2023-04-24T08:08:21;8.00;;;3.00;;
72286;SDS011;60221;45.696;16.076;2023-04-24T08:10:49;8.20;;;3.30;;
72286;SDS011;60221;45.696;16.076;2023-04-24T08:13:16;6.60;;;2.80;;
72286;SDS011;60221;45.696;16.076;2023-04-24T08:15:42;6.70;;;3.20;;
72286;SDS011;60221;45.696;16.076;2023-04-24T08:18:09;5.80;;;2.90;;
72286;SDS011;60221;45.696;16.076;2023-04-24T08:20:38;6.40;;;3.00;;
72286;SDS011;60221;45.696;16.076;2023-04-24T08:23:05;6.40;;;2.90;;
72286;SDS011;60221;45.696;16.076;2023-04-24T08:25:32;5.70;;;3.30;;
72286;SDS011;60221;45.696;16.076;2023-04-24T08:27:59;7.30;;;3.40;;
72286;SDS011;60221;45.696;16.076;2023-04-24T08:30:26;7.90;;;3.10;;
72286;SDS011;60221;45.696;16.076;2023-04-24T08:32:53;9.10;;;4.40;;
72286;SDS011;60221;45.696;16.076;2023-04-24T08:35:19;6.20;;;3.00;;
72286;SDS011;60221;45.696;16.076;2023-04-24T08:37:46;8.60;;;4.60;;
72286;SDS011;60221;45.696;16.076;2023-04-24T08:40:14;6.50;;;3.30;;
72286;SDS011;60221;45.696;16.076;2023-04-24T08:42:41;4.80;;;2.30;;
72286;SDS011;60221;45.696;16.076;2023-04-24T08:45:12;5.50;;;2.50;;
72286;SDS011;60221;45.696;16.076;2023-04-24T08:47:40;7.50;;;2.80;;
72286;SDS011;60221;45.696;16.076;2023-04-24T08:50:08;6.90;;;3.70;;
72286;SDS011;60221;45.696;16.076;2023-04-24T08:52:36;5.70;;;2.60;;
72286;SDS011;60221;45.696;16.076;2023-04-24T08:55:02;12.80;;;8.20;;
72286;SDS011;60221;45.696;16.076;2023-04-24T08:57:29;11.60;;;6.80;;
72286;SDS011;60221;45.696;16.076;2023-04-24T08:59:57;6.70;;;3.60;;
72286;SDS011;60221;45.696;16.076;2023-04-24T09:02:24;7.00;;;3.50;;
72286;SDS011;60221;45.696;16.076;2023-04-24T09:04:52;7.50;;;3.50;;
72286;SDS011;60221;45.696;16.076;2023-04-24T09:07:19;11.60;;;4.90;;
72286;SDS011;60221;45.696;16.076;2023-04-24T09:09:46;18.40;;;6.20;;
72286;SDS011;60221;45.696;16.076;2023-04-24T09:12:14;11.00;;;3.80;;
72286;SDS011;60221;45.696;16.076;2023-04-24T09:14:41;15.50;;;3.90;;
72286;SDS011;60221;45.696;16.076;2023-04-24T09:17:11;14.40;;;4.80;;
72286;SDS011;60221;45.696;16.076;2023-04-24T09:19:39;13.70;;;4.60;;
72286;SDS011;60221;45.696;16.076;2023-04-24T09:22:09;10.30;;;4.10;;
72286;SDS011;60221;45.696;16.076;2023-04-24T09:24:37;8.90;;;4.40;;
72286;SDS011;60221;45.696;16.076;2023-04-24T09:27:05;10.90;;;4.40;;
72286;SDS011;60221;45.696;16.076;2023-04-24T09:29:31;9.90;;;5.40;;
72286;SDS011;60221;45.696;16.076;2023-04-24T09:31:59;9.80;;;5.10;;
72286;SDS011;60221;45.696;16.076;2023-04-24T09:34:44;8.80;;;4.70;;
72286;SDS011;60221;45.696;16.076;2023-04-24T09:37:29;8.10;;;4.10;;
72286;SDS011;60221;45.696;16.076;2023-04-24T09:40:12;10.30;;;5.00;;
72286;SDS011;60221;45.696;16.076;2023-04-24T09:42:39;9.50;;;4.30;;
72286;SDS011;60221;45.696;16.076;2023-04-24T09:45:09;7.90;;;4.20;;
72286;SDS011;60221;45.696;16.076;2023-04-24T09:47:41;7.50;;;3.90;;
72286;SDS011;60221;45.696;16.076;2023-04-24T09:50:12;8.00;;;4.00;;
72286;SDS011;60221;45.696;16.076;2023-04-24T09:52:40;6.30;;;4.00;;
72286;SDS011;60221;45.696;16.076;2023-04-24T09:55:10;8.00;;;5.20;;
72286;SDS011;60221;45.696;16.076;2023-04-24T09:57:46;8.00;;;4.60;;
72286;SDS011;60221;45.696;16.076;2023-04-24T10:00:13;8.80;;;4.30;;
72286;SDS011;60221;45.696;16.076;2023-04-24T10:02:40;8.20;;;4.80;;
72286;SDS011;60221;45.696;16.076;2023-04-24T10:05:08;8.00;;;4.40;;
72286;SDS011;60221;45.696;16.076;2023-04-24T10:07:37;6.90;;;4.20;;
72286;SDS011;60221;45.696;16.076;2023-04-24T10:10:04;10.50;;;4.60;;
72286;SDS011;60221;45.696;16.076;2023-04-24T10:12:31;8.50;;;4.10;;
72286;SDS011;60221;45.696;16.076;2023-04-24T10:14:58;7.30;;;3.40;;
72286;SDS011;60221;45.696;16.076;2023-04-24T10:17:25;6.10;;;2.60;;
72286;SDS011;60221;45.696;16.076;2023-04-24T10:19:52;5.90;;;2.30;;
72286;SDS011;60221;45.696;16.076;2023-04-24T10:22:19;5.00;;;1.50;;
72286;SDS011;60221;45.696;16.076;2023-04-24T10:24:46;4.80;;;1.90;;
72286;SDS011;60221;45.696;16.076;2023-04-24T10:27:13;7.40;;;1.60;;
72286;SDS011;60221;45.696;16.076;2023-04-24T10:29:42;5.50;;;1.60;;
72286;SDS011;60221;45.696;16.076;2023-04-24T10:32:10;4.70;;;1.50;;
72286;SDS011;60221;45.696;16.076;2023-04-24T10:34:37;7.00;;;1.50;;
72286;SDS011;60221;45.696;16.076;2023-04-24T10:37:04;6.40;;;1.40;;
72286;SDS011;60221;45.696;16.076;2023-04-24T10:39:31;5.60;;;1.40;;
72286;SDS011;60221;45.696;16.076;2023-04-24T10:42:00;4.50;;;1.40;;
72286;SDS011;60221;45.696;16.076;2023-04-24T10:44:31;3.50;;;1.10;;
72286;SDS011;60221;45.696;16.076;2023-04-24T10:47:02;4.70;;;1.50;;
72286;SDS011;60221;45.696;16.076;2023-04-24T10:49:29;5.20;;;1.40;;
72286;SDS011;60221;45.696;16.076;2023-04-24T10:51:59;3.90;;;1.30;;
72286;SDS011;60221;45.696;16.076;2023-04-24T10:54:33;5.30;;;1.80;;
72286;SDS011;60221;45.696;16.076;2023-04-24T10:59:49;5.10;;;1.60;;
72286;SDS011;60221;45.696;16.076;2023-04-24T11:02:17;4.80;;;1.90;;
72286;SDS011;60221;45.696;16.076;2023-04-24T11:04:44;11.30;;;5.70;;
72286;SDS011;60221;45.696;16.076;2023-04-24T11:07:12;13.50;;;7.90;;
72286;SDS011;60221;45.696;16.076;2023-04-24T11:09:39;9.00;;;3.80;;
72286;SDS011;60221;45.696;16.076;2023-04-24T11:12:10;8.40;;;3.50;;
72286;SDS011;60221;45.696;16.076;2023-04-24T11:17:29;8.90;;;4.00;;
72286;SDS011;60221;45.696;16.076;2023-04-24T11:20:01;12.10;;;4.60;;
72286;SDS011;60221;45.696;16.076;2023-04-24T11:22:48;7.30;;;3.50;;
72286;SDS011;60221;45.696;16.076;2023-04-24T11:25:14;7.80;;;3.40;;
72286;SDS011;60221;45.696;16.076;2023-04-24T11:27:43;12.60;;;5.50;;
72286;SDS011;60221;45.696;16.076;2023-04-24T11:30:10;6.40;;;2.90;;
72286;SDS011;60221;45.696;16.076;2023-04-24T11:32:41;6.30;;;2.90;;
72286;SDS011;60221;45.696;16.076;2023-04-24T11:35:12;9.20;;;3.80;;
72286;SDS011;60221;45.696;16.076;2023-04-24T11:37:40;9.30;;;3.90;;
72286;SDS011;60221;45.696;16.076;2023-04-24T11:40:08;11.80;;;4.80;;
72286;SDS011;60221;45.696;16.076;2023-04-24T11:42:39;12.10;;;5.10;;
72286;SDS011;60221;45.696;16.076;2023-04-24T11:45:10;6.80;;;3.10;;
72286;SDS011;60221;45.696;16.076;2023-04-24T11:47:37;7.90;;;3.40;;
72286;SDS011;60221;45.696;16.076;2023-04-24T11:50:05;11.10;;;2.70;;
72286;SDS011;60221;45.696;16.076;2023-04-24T11:52:33;5.60;;;2.40;;
72286;SDS011;60221;45.696;16.076;2023-04-24T11:55:00;5.40;;;1.90;;
72286;SDS011;60221;45.696;16.076;2023-04-24T11:57:27;9.30;;;2.50;;
72286;SDS011;60221;45.696;16.076;2023-04-24T12:00:00;5.60;;;2.50;;
72286;SDS011;60221;45.696;16.076;2023-04-24T12:02:37;5.70;;;2.40;;
72286;SDS011;60221;45.696;16.076;2023-04-24T12:05:05;6.10;;;2.30;;
72286;SDS011;60221;45.696;16.076;2023-04-24T12:07:40;8.60;;;2.20;;
72286;SDS011;60221;45.696;16.076;2023-04-24T12:10:09;5.90;;;2.10;;
72286;SDS011;60221;45.696;16.076;2023-04-24T12:12:36;5.30;;;2.30;;
72286;SDS011;60221;45.696;16.076;2023-04-24T12:15:06;4.60;;;1.60;;
72286;SDS011;60221;45.696;16.076;2023-04-24T12:17:34;5.40;;;2.30;;
72286;SDS011;60221;45.696;16.076;2023-04-24T12:20:02;4.30;;;1.60;;
72286;SDS011;60221;45.696;16.076;2023-04-24T12:22:49;3.40;;;1.30;;
72286;SDS011;60221;45.696;16.076;2023-04-24T12:25:17;4.20;;;2.00;;
72286;SDS011;60221;45.696;16.076;2023-04-24T12:27:45;5.60;;;2.10;;
72286;SDS011;60221;45.696;16.076;2023-04-24T12:30:13;4.30;;;1.50;;
72286;SDS011;60221;45.696;16.076;2023-04-24T12:32:44;3.90;;;1.70;;
72286;SDS011;60221;45.696;16.076;2023-04-24T12:35:12;4.50;;;1.30;;
72286;SDS011;60221;45.696;16.076;2023-04-24T12:37:41;4.50;;;1.50;;
72286;SDS011;60221;45.696;16.076;2023-04-24T12:40:12;4.60;;;2.10;;
72286;SDS011;60221;45.696;16.076;2023-04-24T12:42:43;5.30;;;1.60;;
72286;SDS011;60221;45.696;16.076;2023-04-24T12:45:10;3.20;;;1.50;;
72286;SDS011;60221;45.696;16.076;2023-04-24T12:47:38;4.80;;;1.40;;
72286;SDS011;60221;45.696;16.076;2023-04-24T12:50:07;5.60;;;2.20;;
72286;SDS011;60221;45.696;16.076;2023-04-24T12:52:34;5.00;;;1.80;;
72286;SDS011;60221;45.696;16.076;2023-04-24T12:55:01;6.80;;;1.60;;
72286;SDS011;60221;45.696;16.076;2023-04-24T12:57:28;5.10;;;1.80;;
72286;SDS011;60221;45.696;16.076;2023-04-24T12:59:56;4.50;;;1.80;;
72286;SDS011;60221;45.696;16.076;2023-04-24T13:02:23;3.90;;;1.20;;
72286;SDS011;60221;45.696;16.076;2023-04-24T13:04:51;4.10;;;1.40;;
72286;SDS011;60221;45.696;16.076;2023-04-24T13:07:18;5.40;;;2.00;;
72286;SDS011;60221;45.696;16.076;2023-04-24T13:09:45;4.80;;;1.60;;
72286;SDS011;60221;45.696;16.076;2023-04-24T13:12:13;5.10;;;1.70;;
72286;SDS011;60221;45.696;16.076;2023-04-24T13:14:40;4.30;;;1.60;;
72286;SDS011;60221;45.696;16.076;2023-04-24T13:17:07;4.40;;;1.30;;
72286;SDS011;60221;45.696;16.076;2023-04-24T13:19:38;5.00;;;1.30;;
72286;SDS011;60221;45.696;16.076;2023-04-24T13:22:06;6.60;;;1.50;;
72286;SDS011;60221;45.696;16.076;2023-04-24T13:24:33;3.30;;;1.10;;
72286;SDS011;60221;45.696;16.076;2023-04-24T13:27:00;6.80;;;1.50;;
72286;SDS011;60221;45.696;16.076;2023-04-24T13:29:27;3.80;;;1.40;;
72286;SDS011;60221;45.696;16.076;2023-04-24T13:31:54;5.40;;;1.20;;
72286;SDS011;60221;45.696;16.076;2023-04-24T13:34:22;4.10;;;1.20;;
72286;SDS011;60221;45.696;16.076;2023-04-24T13:36:49;4.30;;;1.30;;
72286;SDS011;60221;45.696;16.076;2023-04-24T13:39:19;7.30;;;3.00;;
72286;SDS011;60221;45.696;16.076;2023-04-24T13:41:46;5.60;;;3.00;;
72286;SDS011;60221;45.696;16.076;2023-04-24T13:44:16;6.40;;;3.10;;
72286;SDS011;60221;45.696;16.076;2023-04-24T13:46:44;5.80;;;3.00;;
72286;SDS011;60221;45.696;16.076;2023-04-24T13:49:12;6.60;;;3.70;;
72286;SDS011;60221;45.696;16.076;2023-04-24T13:51:39;7.20;;;3.30;;
72286;SDS011;60221;45.696;16.076;2023-04-24T13:54:06;8.20;;;3.60;;
72286;SDS011;60221;45.696;16.076;2023-04-24T13:56:33;9.80;;;3.50;;
72286;SDS011;60221;45.696;16.076;2023-04-24T13:59:00;9.20;;;2.00;;
72286;SDS011;60221;45.696;16.076;2023-04-24T14:01:27;7.70;;;1.80;;
72286;SDS011;60221;45.696;16.076;2023-04-24T14:03:54;6.50;;;1.60;;
72286;SDS011;60221;45.696;16.076;2023-04-24T14:06:22;3.80;;;0.50;;
72286;SDS011;60221;45.696;16.076;2023-04-24T14:08:49;3.00;;;0.60;;
72286;SDS011;60221;45.696;16.076;2023-04-24T14:11:17;4.00;;;0.80;;
72286;SDS011;60221;45.696;16.076;2023-04-24T14:13:44;3.30;;;0.60;;
72286;SDS011;60221;45.696;16.076;2023-04-24T14:16:11;8.30;;;1.10;;
72286;SDS011;60221;45.696;16.076;2023-04-24T14:18:38;4.20;;;0.60;;
72286;SDS011;60221;45.696;16.076;2023-04-24T14:21:05;3.20;;;0.60;;
72286;SDS011;60221;45.696;16.076;2023-04-24T14:23:32;5.00;;;0.70;;
72286;SDS011;60221;45.696;16.076;2023-04-24T14:25:59;9.20;;;3.40;;
72286;SDS011;60221;45.696;16.076;2023-04-24T14:28:26;7.70;;;2.80;;
72286;SDS011;60221;45.696;16.076;2023-04-24T14:30:53;6.30;;;2.20;;
72286;SDS011;60221;45.696;16.076;2023-04-24T14:33:20;4.40;;;1.50;;
72286;SDS011;60221;45.696;16.076;2023-04-24T14:35:47;4.80;;;1.30;;
72286;SDS011;60221;45.696;16.076;2023-04-24T14:38:14;5.90;;;1.60;;
72286;SDS011;60221;45.696;16.076;2023-04-24T14:40:41;8.60;;;2.50;;
72286;SDS011;60221;45.696;16.076;2023-04-24T14:43:11;8.70;;;3.20;;
72286;SDS011;60221;45.696;16.076;2023-04-24T14:45:38;8.90;;;2.60;;